sensor_id;sensor_type;location;lat;lon;timestamp;pressure;altitude;pressure_sealevel;temperature;humidity
63819;BME280;49970;54.976;73.248;2023-04-22T00:00:32;101007.41;;;2.91;69.63
63819;BME280;49970;54.976;73.248;2023-04-22T00:02:58;101004.91;;;2.86;69.98
63819;BME280;49970;54.976;73.248;2023-04-22T00:05:26;101011.91;;;2.86;69.37
63819;BME280;49970;54.976;73.248;2023-04-22T00:07:52;101004.91;;;2.86;69.46
63819;BME280;49970;54.976;73.248;2023-04-22T00:10:19;101017.94;;;2.88;69.58
63819;BME280;49970;54.976;73.248;2023-04-22T00:12:45;101004.09;;;2.84;69.47
63819;BME280;49970;54.976;73.248;2023-04-22T00:15:11;100998.06;;;2.82;69.56
63819;BME280;49970;54.976;73.248;2023-04-22T00:17:38;101002.38;;;2.83;69.54
63819;BME280;49970;54.976;73.248;2023-04-22T00:20:06;101006.81;;;2.81;69.50
63819;BME280;49970;54.976;73.248;2023-04-22T00:22:38;101006.84;;;2.80;69.64
63819;BME280;49970;54.976;73.248;2023-04-22T00:25:05;101005.13;;;2.79;69.91
63819;BME280;49970;54.976;73.248;2023-04-22T00:27:31;101014.69;;;2.80;70.68
63819;BME280;49970;54.976;73.248;2023-04-22T00:30:08;101014.72;;;2.78;71.56
63819;BME280;49970;54.976;73.248;2023-04-22T00:32:34;101017.41;;;2.77;71.37
63819;BME280;49970;54.976;73.248;2023-04-22T00:35:01;101010.44;;;2.75;71.47
63819;BME280;49970;54.976;73.248;2023-04-22T00:37:27;101009.63;;;2.73;71.60
63819;BME280;49970;54.976;73.248;2023-04-22T00:39:54;101024.50;;;2.71;71.75
63819;BME280;49970;54.976;73.248;2023-04-22T00:42:23;101017.59;;;2.69;71.51
63819;BME280;49970;54.976;73.248;2023-04-22T00:44:50;101021.16;;;2.66;71.67
63819;BME280;49970;54.976;73.248;2023-04-22T00:47:22;101024.75;;;2.62;72.25
63819;BME280;49970;54.976;73.248;2023-04-22T00:49:52;101025.59;;;2.63;72.08
63819;BME280;49970;54.976;73.248;2023-04-22T00:52:19;101027.50;;;2.58;72.21
63819;BME280;49970;54.976;73.248;2023-04-22T00:54:45;101031.00;;;2.57;72.47
63819;BME280;49970;54.976;73.248;2023-04-22T00:57:13;101032.69;;;2.59;72.45
63819;BME280;49970;54.976;73.248;2023-04-22T00:59:49;101037.03;;;2.60;72.21
63819;BME280;49970;54.976;73.248;2023-04-22T01:02:20;101035.31;;;2.59;72.11
63819;BME280;49970;54.976;73.248;2023-04-22T01:04:58;101035.50;;;2.52;72.24
63819;BME280;49970;54.976;73.248;2023-04-22T01:07:29;101042.38;;;2.56;72.25
63819;BME280;49970;54.976;73.248;2023-04-22T01:09:56;101039.72;;;2.57;72.20
63819;BME280;49970;54.976;73.248;2023-04-22T01:12:22;101044.91;;;2.59;72.14
63819;BME280;49970;54.976;73.248;2023-04-22T01:14:53;101050.97;;;2.61;72.14
63819;BME280;49970;54.976;73.248;2023-04-22T01:17:28;101055.22;;;2.63;71.94
63819;BME280;49970;54.976;73.248;2023-04-22T01:20:07;101033.69;;;2.55;71.95
63819;BME280;49970;54.976;73.248;2023-04-22T01:22:40;101037.75;;;2.65;72.77
63819;BME280;49970;54.976;73.248;2023-04-22T01:25:07;101036.81;;;2.68;72.49
63819;BME280;49970;54.976;73.248;2023-04-22T01:27:34;101031.63;;;2.66;73.18
63819;BME280;49970;54.976;73.248;2023-04-22T01:30:01;101029.91;;;2.65;73.65
63819;BME280;49970;54.976;73.248;2023-04-22T01:32:33;101020.47;;;2.60;73.70
63819;BME280;49970;54.976;73.248;2023-04-22T01:34:59;101024.72;;;2.64;74.29
63819;BME280;49970;54.976;73.248;2023-04-22T01:37:26;101019.50;;;2.64;74.76
63819;BME280;49970;54.976;73.248;2023-04-22T01:39:53;101029.91;;;2.65;74.79
63819;BME280;49970;54.976;73.248;2023-04-22T01:42:31;101024.88;;;2.58;75.46
63819;BME280;49970;54.976;73.248;2023-04-22T01:44:57;101031.78;;;2.60;75.63
63819;BME280;49970;54.976;73.248;2023-04-22T01:47:34;101019.63;;;2.59;76.17
63819;BME280;49970;54.976;73.248;2023-04-22T01:50:10;101017.03;;;2.58;76.07
63819;BME280;49970;54.976;73.248;2023-04-22T01:52:38;101025.72;;;2.58;76.57
63819;BME280;49970;54.976;73.248;2023-04-22T01:55:05;101030.03;;;2.61;76.58
63819;BME280;49970;54.976;73.248;2023-04-22T01:57:32;101025.66;;;2.61;76.76
63819;BME280;49970;54.976;73.248;2023-04-22T01:59:59;101019.44;;;2.65;76.86
63819;BME280;49970;54.976;73.248;2023-04-22T02:02:32;101028.88;;;2.71;76.56
63819;BME280;49970;54.976;73.248;2023-04-22T02:05:05;101028.00;;;2.72;76.33
63819;BME280;49970;54.976;73.248;2023-04-22T02:07:32;101022.66;;;2.75;76.74
63819;BME280;49970;54.976;73.248;2023-04-22T02:10:08;101025.13;;;2.81;76.59
63819;BME280;49970;54.976;73.248;2023-04-22T02:12:36;101020.47;;;2.91;76.33
63819;BME280;49970;54.976;73.248;2023-04-22T02:15:03;101031.53;;;3.00;76.06
63819;BME280;49970;54.976;73.248;2023-04-22T02:17:29;101031.31;;;3.10;76.05
63819;BME280;49970;54.976;73.248;2023-04-22T02:19:56;101023.13;;;3.20;75.50
63819;BME280;49970;54.976;73.248;2023-04-22T02:22:26;101014.19;;;3.28;75.42
63819;BME280;49970;54.976;73.248;2023-04-22T02:24:54;101030.47;;;3.37;74.91
63819;BME280;49970;54.976;73.248;2023-04-22T02:27:30;101032.16;;;3.40;74.73
63819;BME280;49970;54.976;73.248;2023-04-22T02:29:57;101034.63;;;3.44;74.25
63819;BME280;49970;54.976;73.248;2023-04-22T02:32:24;101012.53;;;3.53;74.74
63819;BME280;49970;54.976;73.248;2023-04-22T02:34:50;101024.41;;;3.65;74.68
63819;BME280;49970;54.976;73.248;2023-04-22T02:37:16;101012.94;;;3.69;73.72
63819;BME280;49970;54.976;73.248;2023-04-22T02:39:43;101019.25;;;3.90;73.54
63819;BME280;49970;54.976;73.248;2023-04-22T02:42:10;101022.09;;;4.10;73.99
63819;BME280;49970;54.976;73.248;2023-04-22T02:44:37;101022.81;;;4.40;73.44
63819;BME280;49970;54.976;73.248;2023-04-22T02:47:05;101017.47;;;4.68;72.61
63819;BME280;49970;54.976;73.248;2023-04-22T02:49:32;101008.25;;;4.82;71.20
63819;BME280;49970;54.976;73.248;2023-04-22T02:51:58;101017.44;;;4.93;70.69
63819;BME280;49970;54.976;73.248;2023-04-22T02:54:25;101002.47;;;4.95;70.59
63819;BME280;49970;54.976;73.248;2023-04-22T02:56:51;100988.41;;;4.98;70.44
63819;BME280;49970;54.976;73.248;2023-04-22T02:59:27;100983.94;;;5.00;70.89
63819;BME280;49970;54.976;73.248;2023-04-22T03:01:54;101009.22;;;5.03;71.38
63819;BME280;49970;54.976;73.248;2023-04-22T03:04:34;101022.47;;;4.99;72.06
63819;BME280;49970;54.976;73.248;2023-04-22T03:07:01;101032.97;;;4.99;72.20
63819;BME280;49970;54.976;73.248;2023-04-22T03:09:28;101028.63;;;4.98;72.29
63819;BME280;49970;54.976;73.248;2023-04-22T03:11:54;101032.91;;;5.01;71.96
63819;BME280;49970;54.976;73.248;2023-04-22T03:14:20;101029.25;;;5.05;71.40
63819;BME280;49970;54.976;73.248;2023-04-22T03:16:47;101029.97;;;5.10;71.38
63819;BME280;49970;54.976;73.248;2023-04-22T03:19:14;101035.47;;;5.26;71.47
63819;BME280;49970;54.976;73.248;2023-04-22T03:21:41;101039.50;;;5.36;71.15
63819;BME280;49970;54.976;73.248;2023-04-22T03:24:07;101038.19;;;5.46;71.01
63819;BME280;49970;54.976;73.248;2023-04-22T03:26:34;101031.81;;;5.54;70.33
63819;BME280;49970;54.976;73.248;2023-04-22T03:29:06;101038.72;;;5.56;70.65
63819;BME280;49970;54.976;73.248;2023-04-22T03:31:32;101030.53;;;5.64;70.46
63819;BME280;49970;54.976;73.248;2023-04-22T03:33:58;101026.81;;;5.69;70.37
63819;BME280;49970;54.976;73.248;2023-04-22T03:36:28;101037.25;;;5.71;69.72
63819;BME280;49970;54.976;73.248;2023-04-22T03:39:01;101028.59;;;5.69;69.90
63819;BME280;49970;54.976;73.248;2023-04-22T03:41:29;101036.47;;;5.69;70.04
63819;BME280;49970;54.976;73.248;2023-04-22T03:43:55;101029.84;;;5.81;69.88
63819;BME280;49970;54.976;73.248;2023-04-22T03:46:32;101028.00;;;6.06;69.54
63819;BME280;49970;54.976;73.248;2023-04-22T03:49:09;101027.13;;;6.28;68.77
63819;BME280;49970;54.976;73.248;2023-04-22T03:51:35;101026.44;;;6.43;68.83
63819;BME280;49970;54.976;73.248;2023-04-22T03:54:27;101029.09;;;6.63;68.09
63819;BME280;49970;54.976;73.248;2023-04-22T03:57:43;101027.72;;;6.75;68.08
63819;BME280;49970;54.976;73.248;2023-04-22T04:00:10;101036.72;;;6.90;67.83
63819;BME280;49970;54.976;73.248;2023-04-22T04:02:40;101037.53;;;7.11;67.54
63819;BME280;49970;54.976;73.248;2023-04-22T04:05:10;101031.94;;;7.37;66.96
63819;BME280;49970;54.976;73.248;2023-04-22T04:07:38;101030.78;;;7.62;66.49
63819;BME280;49970;54.976;73.248;2023-04-22T04:10:06;101033.97;;;7.87;66.05
63819;BME280;49970;54.976;73.248;2023-04-22T04:12:32;101043.56;;;8.07;65.01
63819;BME280;49970;54.976;73.248;2023-04-22T04:14:59;101031.84;;;8.13;64.62
63819;BME280;49970;54.976;73.248;2023-04-22T04:17:35;101027.50;;;8.12;64.21
63819;BME280;49970;54.976;73.248;2023-04-22T04:20:03;101028.56;;;8.08;63.90
63819;BME280;49970;54.976;73.248;2023-04-22T04:22:30;101027.63;;;8.09;63.87
63819;BME280;49970;54.976;73.248;2023-04-22T04:24:59;101034.59;;;8.10;63.97
63819;BME280;49970;54.976;73.248;2023-04-22T04:27:32;101018.16;;;8.22;63.82
63819;BME280;49970;54.976;73.248;2023-04-22T04:29:59;101023.56;;;8.38;63.42
63819;BME280;49970;54.976;73.248;2023-04-22T04:32:35;101016.63;;;8.53;63.54
63819;BME280;49970;54.976;73.248;2023-04-22T04:35:06;101019.44;;;8.67;63.05
63819;BME280;49970;54.976;73.248;2023-04-22T04:37:33;101023.25;;;8.79;63.08
63819;BME280;49970;54.976;73.248;2023-04-22T04:40:06;101012.78;;;8.93;62.99
63819;BME280;49970;54.976;73.248;2023-04-22T04:42:47;101024.34;;;9.08;63.11
63819;BME280;49970;54.976;73.248;2023-04-22T04:45:20;101013.72;;;9.25;63.14
63819;BME280;49970;54.976;73.248;2023-04-22T04:47:47;101013.91;;;9.38;62.41
63819;BME280;49970;54.976;73.248;2023-04-22T04:50:25;101001.97;;;9.46;61.80
63819;BME280;49970;54.976;73.248;2023-04-22T04:52:59;101000.44;;;9.58;61.96
63819;BME280;49970;54.976;73.248;2023-04-22T04:55:38;100994.44;;;9.70;61.80
63819;BME280;49970;54.976;73.248;2023-04-22T04:58:11;100992.88;;;9.82;60.94
63819;BME280;49970;54.976;73.248;2023-04-22T05:00:38;100997.56;;;9.93;61.25
63819;BME280;49970;54.976;73.248;2023-04-22T05:03:04;100991.75;;;10.02;60.74
63819;BME280;49970;54.976;73.248;2023-04-22T05:17:25;101002.03;;;10.53;59.99
63819;BME280;49970;54.976;73.248;2023-04-22T05:20:57;100997.78;;;10.64;60.16
63819;BME280;49970;54.976;73.248;2023-04-22T05:23:30;101000.16;;;10.69;59.89
63819;BME280;49970;54.976;73.248;2023-04-22T05:25:59;100994.59;;;10.73;59.54
63819;BME280;49970;54.976;73.248;2023-04-22T05:28:25;100994.03;;;10.83;59.77
63819;BME280;49970;54.976;73.248;2023-04-22T05:30:56;100993.94;;;10.84;59.98
63819;BME280;49970;54.976;73.248;2023-04-22T05:33:24;100997.53;;;10.97;59.54
63819;BME280;49970;54.976;73.248;2023-04-22T05:35:51;100996.41;;;11.02;59.25
63819;BME280;49970;54.976;73.248;2023-04-22T05:38:18;101000.56;;;11.06;59.66
63819;BME280;49970;54.976;73.248;2023-04-22T05:40:45;100999.13;;;11.14;58.99
63819;BME280;49970;54.976;73.248;2023-04-22T05:43:13;100996.00;;;11.22;58.87
63819;BME280;49970;54.976;73.248;2023-04-22T05:45:53;100986.06;;;11.26;58.55
63819;BME280;49970;54.976;73.248;2023-04-22T05:48:21;100978.97;;;11.26;58.88
63819;BME280;49970;54.976;73.248;2023-04-22T05:51:00;100990.00;;;11.33;59.20
63819;BME280;49970;54.976;73.248;2023-04-22T05:53:38;100975.97;;;11.45;58.79
63819;BME280;49970;54.976;73.248;2023-04-22T05:56:05;100973.19;;;11.61;58.49
63819;BME280;49970;54.976;73.248;2023-04-22T05:58:32;100973.53;;;11.69;58.09
63819;BME280;49970;54.976;73.248;2023-04-22T06:01:08;100978.34;;;11.77;58.56
63819;BME280;49970;54.976;73.248;2023-04-22T06:04:01;100980.25;;;11.89;58.22
63819;BME280;49970;54.976;73.248;2023-04-22T06:06:31;100980.47;;;11.99;58.00
63819;BME280;49970;54.976;73.248;2023-04-22T06:08:58;100974.53;;;12.08;57.98
63819;BME280;49970;54.976;73.248;2023-04-22T06:11:24;100969.69;;;12.14;57.40
63819;BME280;49970;54.976;73.248;2023-04-22T06:14:00;100963.72;;;12.11;57.23
63819;BME280;49970;54.976;73.248;2023-04-22T06:16:29;100966.19;;;12.14;57.11
63819;BME280;49970;54.976;73.248;2023-04-22T06:19:01;100943.97;;;12.15;56.89
63819;BME280;49970;54.976;73.248;2023-04-22T06:21:27;100966.06;;;12.15;57.04
63819;BME280;49970;54.976;73.248;2023-04-22T06:23:55;100959.81;;;12.16;57.18
63819;BME280;49970;54.976;73.248;2023-04-22T06:26:41;100954.09;;;12.23;56.65
63819;BME280;49970;54.976;73.248;2023-04-22T06:29:53;100953.47;;;12.32;57.32
63819;BME280;49970;54.976;73.248;2023-04-22T06:32:19;100961.34;;;12.46;56.99
63819;BME280;49970;54.976;73.248;2023-04-22T06:34:45;100954.13;;;12.61;56.63
63819;BME280;49970;54.976;73.248;2023-04-22T06:37:21;100951.91;;;12.67;56.80
63819;BME280;49970;54.976;73.248;2023-04-22T06:39:48;100953.91;;;12.77;56.28
63819;BME280;49970;54.976;73.248;2023-04-22T06:42:34;100949.94;;;12.82;55.94
63819;BME280;49970;54.976;73.248;2023-04-22T06:45:36;100940.81;;;12.86;55.97
63819;BME280;49970;54.976;73.248;2023-04-22T06:48:35;100935.38;;;13.01;55.85
63819;BME280;49970;54.976;73.248;2023-04-22T06:51:18;100940.75;;;13.12;55.54
63819;BME280;49970;54.976;73.248;2023-04-22T06:53:45;100926.19;;;13.17;55.21
63819;BME280;49970;54.976;73.248;2023-04-22T06:56:15;100927.38;;;13.26;55.60
63819;BME280;49970;54.976;73.248;2023-04-22T06:58:41;100917.00;;;13.34;55.44
63819;BME280;49970;54.976;73.248;2023-04-22T07:01:08;100918.88;;;13.45;54.92
63819;BME280;49970;54.976;73.248;2023-04-22T07:03:41;100920.69;;;13.44;55.25
63819;BME280;49970;54.976;73.248;2023-04-22T07:06:16;100928.44;;;13.48;55.22
63819;BME280;49970;54.976;73.248;2023-04-22T07:08:52;100921.94;;;13.52;55.14
63819;BME280;49970;54.976;73.248;2023-04-22T07:11:18;100907.88;;;13.50;54.72
63819;BME280;49970;54.976;73.248;2023-04-22T07:13:57;100907.44;;;13.56;55.03
63819;BME280;49970;54.976;73.248;2023-04-22T07:16:23;100908.69;;;13.63;54.94
63819;BME280;49970;54.976;73.248;2023-04-22T07:18:50;100899.19;;;13.72;54.76
63819;BME280;49970;54.976;73.248;2023-04-22T07:21:22;100894.97;;;13.80;54.99
63819;BME280;49970;54.976;73.248;2023-04-22T07:23:48;100903.47;;;13.85;54.62
63819;BME280;49970;54.976;73.248;2023-04-22T07:26:15;100897.06;;;13.88;54.67
63819;BME280;49970;54.976;73.248;2023-04-22T07:28:41;100895.88;;;13.92;55.05
63819;BME280;49970;54.976;73.248;2023-04-22T07:31:07;100899.03;;;13.97;54.63
63819;BME280;49970;54.976;73.248;2023-04-22T07:33:33;100894.19;;;14.02;54.85
63819;BME280;49970;54.976;73.248;2023-04-22T07:35:59;100889.25;;;14.09;54.64
63819;BME280;49970;54.976;73.248;2023-04-22T07:38:26;100891.03;;;14.08;54.45
63819;BME280;49970;54.976;73.248;2023-04-22T07:41:22;100879.31;;;14.11;54.85
63819;BME280;49970;54.976;73.248;2023-04-22T07:45:14;100872.56;;;14.18;54.69
63819;BME280;49970;54.976;73.248;2023-04-22T07:49:04;100882.63;;;14.26;54.07
63819;BME280;49970;54.976;73.248;2023-04-22T07:52:56;100873.91;;;14.35;53.21
63819;BME280;49970;54.976;73.248;2023-04-22T08:00:41;100875.00;;;14.32;52.83
63819;BME280;49970;54.976;73.248;2023-04-22T08:03:07;100883.47;;;14.37;52.18
63819;BME280;49970;54.976;73.248;2023-04-22T08:05:34;100878.03;;;14.39;51.65
63819;BME280;49970;54.976;73.248;2023-04-22T08:08:00;100885.53;;;14.45;51.90
63819;BME280;49970;54.976;73.248;2023-04-22T08:10:26;100886.94;;;14.51;51.82
63819;BME280;49970;54.976;73.248;2023-04-22T08:12:52;100884.25;;;14.51;51.32
63819;BME280;49970;54.976;73.248;2023-04-22T08:15:19;100885.94;;;14.52;51.24
63819;BME280;49970;54.976;73.248;2023-04-22T08:17:55;100876.38;;;14.49;51.79
63819;BME280;49970;54.976;73.248;2023-04-22T08:20:22;100887.97;;;14.48;51.77
63819;BME280;49970;54.976;73.248;2023-04-22T08:22:50;100886.19;;;14.49;51.66
63819;BME280;49970;54.976;73.248;2023-04-22T08:25:22;100882.53;;;14.50;52.09
63819;BME280;49970;54.976;73.248;2023-04-22T08:27:51;100862.28;;;14.47;51.87
63819;BME280;49970;54.976;73.248;2023-04-22T08:30:18;100869.81;;;14.53;51.62
63819;BME280;49970;54.976;73.248;2023-04-22T08:32:44;100862.44;;;14.57;51.70
63819;BME280;49970;54.976;73.248;2023-04-22T08:35:17;100869.09;;;14.62;51.44
63819;BME280;49970;54.976;73.248;2023-04-22T08:37:49;100868.25;;;14.62;50.88
63819;BME280;49970;54.976;73.248;2023-04-22T08:40:15;100872.88;;;14.60;50.86
63819;BME280;49970;54.976;73.248;2023-04-22T08:42:43;100864.03;;;14.59;51.27
63819;BME280;49970;54.976;73.248;2023-04-22T08:45:19;100859.63;;;14.58;51.08
63819;BME280;49970;54.976;73.248;2023-04-22T08:47:51;100868.72;;;14.67;50.73
63819;BME280;49970;54.976;73.248;2023-04-22T08:50:19;100860.00;;;14.65;51.46
63819;BME280;49970;54.976;73.248;2023-04-22T08:52:47;100866.66;;;14.70;51.67
63819;BME280;49970;54.976;73.248;2023-04-22T08:55:24;100861.09;;;14.74;50.88
63819;BME280;49970;54.976;73.248;2023-04-22T08:57:52;100865.44;;;14.75;51.06
63819;BME280;49970;54.976;73.248;2023-04-22T09:00:19;100855.75;;;14.74;50.77
63819;BME280;49970;54.976;73.248;2023-04-22T09:02:46;100846.91;;;14.73;50.55
63819;BME280;49970;54.976;73.248;2023-04-22T09:05:13;100856.59;;;14.74;50.18
63819;BME280;49970;54.976;73.248;2023-04-22T09:07:40;100865.72;;;14.72;50.45
63819;BME280;49970;54.976;73.248;2023-04-22T09:10:06;100854.91;;;14.73;49.96
63819;BME280;49970;54.976;73.248;2023-04-22T09:12:33;100855.63;;;14.75;49.72
63819;BME280;49970;54.976;73.248;2023-04-22T09:15:05;100859.16;;;14.76;50.20
63819;BME280;49970;54.976;73.248;2023-04-22T09:17:34;100846.41;;;14.79;50.34
63819;BME280;49970;54.976;73.248;2023-04-22T09:20:08;100850.66;;;14.82;49.82
63819;BME280;49970;54.976;73.248;2023-04-22T09:22:39;100845.94;;;14.85;50.05
63819;BME280;49970;54.976;73.248;2023-04-22T09:27:42;100841.69;;;14.94;49.81
63819;BME280;49970;54.976;73.248;2023-04-22T09:30:27;100848.47;;;14.98;49.68
63819;BME280;49970;54.976;73.248;2023-04-22T09:32:55;100837.19;;;14.94;49.95
63819;BME280;49970;54.976;73.248;2023-04-22T09:35:36;100838.03;;;14.95;50.39
63819;BME280;49970;54.976;73.248;2023-04-22T09:38:22;100835.84;;;15.00;50.09
63819;BME280;49970;54.976;73.248;2023-04-22T09:41:36;100826.88;;;15.01;50.38
63819;BME280;49970;54.976;73.248;2023-04-22T09:44:14;100836.91;;;15.09;50.31
63819;BME280;49970;54.976;73.248;2023-04-22T09:46:53;100835.94;;;15.10;50.51
63819;BME280;49970;54.976;73.248;2023-04-22T09:49:20;100824.06;;;15.14;50.06
63819;BME280;49970;54.976;73.248;2023-04-22T09:51:55;100819.03;;;15.20;49.79
63819;BME280;49970;54.976;73.248;2023-04-22T09:54:23;100821.09;;;15.28;49.45
63819;BME280;49970;54.976;73.248;2023-04-22T09:56:50;100818.16;;;15.31;49.31
63819;BME280;49970;54.976;73.248;2023-04-22T09:59:27;100814.66;;;15.31;49.18
63819;BME280;49970;54.976;73.248;2023-04-22T10:01:58;100809.19;;;15.32;48.74
63819;BME280;49970;54.976;73.248;2023-04-22T10:04:32;100806.66;;;15.31;49.10
63819;BME280;49970;54.976;73.248;2023-04-22T10:06:59;100807.28;;;15.23;49.29
63819;BME280;49970;54.976;73.248;2023-04-22T10:09:27;100800.25;;;15.22;49.23
63819;BME280;49970;54.976;73.248;2023-04-22T10:11:55;100797.19;;;15.27;49.14
63819;BME280;49970;54.976;73.248;2023-04-22T10:14:24;100792.72;;;15.27;49.30
63819;BME280;49970;54.976;73.248;2023-04-22T10:16:57;100792.19;;;15.33;49.26
63819;BME280;49970;54.976;73.248;2023-04-22T10:19:25;100790.50;;;15.32;49.58
63819;BME280;49970;54.976;73.248;2023-04-22T10:22:11;100792.66;;;15.38;49.15
63819;BME280;49970;54.976;73.248;2023-04-22T10:25:56;100785.22;;;15.42;48.41
63819;BME280;49970;54.976;73.248;2023-04-22T10:28:27;100792.00;;;15.46;46.98
63819;BME280;49970;54.976;73.248;2023-04-22T10:30:54;100792.00;;;15.46;46.76
63819;BME280;49970;54.976;73.248;2023-04-22T10:41:49;100803.28;;;15.50;47.64
63819;BME280;49970;54.976;73.248;2023-04-22T10:44:44;100806.94;;;15.49;47.49
63819;BME280;49970;54.976;73.248;2023-04-22T10:47:11;100804.25;;;15.49;47.53
63819;BME280;49970;54.976;73.248;2023-04-22T10:49:37;100810.69;;;15.46;47.00
63819;BME280;49970;54.976;73.248;2023-04-22T10:52:05;100804.06;;;15.40;46.99
63819;BME280;49970;54.976;73.248;2023-04-22T10:57:12;100812.63;;;15.23;46.22
63819;BME280;49970;54.976;73.248;2023-04-22T10:59:59;100819.34;;;15.06;45.18
63819;BME280;49970;54.976;73.248;2023-04-22T11:02:51;100820.25;;;14.84;46.71
63819;BME280;49970;54.976;73.248;2023-04-22T11:06:34;100869.66;;;14.32;51.93
63819;BME280;49970;54.976;73.248;2023-04-22T11:13:19;100891.25;;;13.35;59.76
63819;BME280;49970;54.976;73.248;2023-04-22T11:16:01;100899.28;;;13.09;60.34
63819;BME280;49970;54.976;73.248;2023-04-22T11:18:47;100918.59;;;12.75;61.96
63819;BME280;49970;54.976;73.248;2023-04-22T11:21:34;100885.97;;;12.60;60.76
63819;BME280;49970;54.976;73.248;2023-04-22T11:25:25;100873.03;;;12.55;61.55
63819;BME280;49970;54.976;73.248;2023-04-22T11:28:58;100864.72;;;12.60;62.73
63819;BME280;49970;54.976;73.248;2023-04-22T11:31:25;100871.53;;;12.64;63.04
63819;BME280;49970;54.976;73.248;2023-04-22T11:33:59;100870.34;;;12.68;62.11
63819;BME280;49970;54.976;73.248;2023-04-22T11:36:26;100873.31;;;12.76;61.88
63819;BME280;49970;54.976;73.248;2023-04-22T11:38:55;100862.69;;;12.76;61.68
63819;BME280;49970;54.976;73.248;2023-04-22T11:41:22;100887.88;;;12.83;62.92
63819;BME280;49970;54.976;73.248;2023-04-22T11:43:53;100881.59;;;12.84;63.52
63819;BME280;49970;54.976;73.248;2023-04-22T11:46:29;100878.94;;;12.84;63.66
63819;BME280;49970;54.976;73.248;2023-04-22T11:49:15;100876.28;;;12.84;63.36
63819;BME280;49970;54.976;73.248;2023-04-22T11:51:55;100874.47;;;12.85;62.60
63819;BME280;49970;54.976;73.248;2023-04-22T11:54:35;100871.81;;;12.85;63.23
63819;BME280;49970;54.976;73.248;2023-04-22T11:57:06;100871.81;;;12.85;63.04
63819;BME280;49970;54.976;73.248;2023-04-22T11:59:56;100874.78;;;12.80;63.21
63819;BME280;49970;54.976;73.248;2023-04-22T12:02:24;100857.25;;;12.78;62.97
63819;BME280;49970;54.976;73.248;2023-04-22T12:04:50;100857.38;;;12.76;62.78
63819;BME280;49970;54.976;73.248;2023-04-22T12:07:16;100859.06;;;12.77;62.78
63819;BME280;49970;54.976;73.248;2023-04-22T12:09:42;100844.91;;;12.77;62.27
63819;BME280;49970;54.976;73.248;2023-04-22T12:12:14;100852.88;;;12.77;61.23
63819;BME280;49970;54.976;73.248;2023-04-22T12:14:50;100838.13;;;12.73;61.24
63819;BME280;49970;54.976;73.248;2023-04-22T12:17:24;100854.38;;;12.81;61.82
63819;BME280;49970;54.976;73.248;2023-04-22T12:20:00;100848.31;;;12.79;62.59
63819;BME280;49970;54.976;73.248;2023-04-22T12:22:28;100848.31;;;12.79;63.01
63819;BME280;49970;54.976;73.248;2023-04-22T12:25:00;100850.22;;;12.77;62.80
63819;BME280;49970;54.976;73.248;2023-04-22T12:27:26;100863.41;;;12.78;63.21
63819;BME280;49970;54.976;73.248;2023-04-22T12:29:54;100859.81;;;12.79;63.06
63819;BME280;49970;54.976;73.248;2023-04-22T12:32:31;100869.56;;;12.79;63.71
63819;BME280;49970;54.976;73.248;2023-04-22T12:35:06;100862.47;;;12.79;63.93
63819;BME280;49970;54.976;73.248;2023-04-22T12:37:53;100857.38;;;12.76;63.35
63819;BME280;49970;54.976;73.248;2023-04-22T12:41:44;100860.34;;;12.71;63.79
63819;BME280;49970;54.976;73.248;2023-04-22T12:45:35;100853.94;;;12.74;62.67
63819;BME280;49970;54.976;73.248;2023-04-22T12:53:15;100852.34;;;12.84;59.39
63819;BME280;49970;54.976;73.248;2023-04-22T12:57:07;100838.72;;;12.89;59.33
63819;BME280;49970;54.976;73.248;2023-04-22T13:00:58;100850.31;;;12.88;59.98
63819;BME280;49970;54.976;73.248;2023-04-22T13:04:54;100852.34;;;12.84;59.74
63819;BME280;49970;54.976;73.248;2023-04-22T13:08:45;100854.88;;;12.86;60.00
63819;BME280;49970;54.976;73.248;2023-04-22T13:16:25;100854.75;;;12.87;60.79
63819;BME280;49970;54.976;73.248;2023-04-22T13:20:41;100851.25;;;12.87;60.75
63819;BME280;49970;54.976;73.248;2023-04-22T13:24:32;100847.88;;;12.85;60.99
63819;BME280;49970;54.976;73.248;2023-04-22T13:32:12;100839.25;;;12.81;61.33
63819;BME280;49970;54.976;73.248;2023-04-22T13:36:05;100832.25;;;12.80;60.89
63819;BME280;49970;54.976;73.248;2023-04-22T13:39:36;100832.25;;;12.80;61.97
63819;BME280;49970;54.976;73.248;2023-04-22T13:43:27;100832.34;;;12.79;62.24
63819;BME280;49970;54.976;73.248;2023-04-22T13:47:18;100831.75;;;12.75;62.47
63819;BME280;49970;54.976;73.248;2023-04-22T13:54:38;100812.09;;;12.65;63.54
63819;BME280;49970;54.976;73.248;2023-04-22T13:57:15;100816.69;;;12.63;64.66
63819;BME280;49970;54.976;73.248;2023-04-22T13:59:41;100824.75;;;12.61;65.58
63819;BME280;49970;54.976;73.248;2023-04-22T14:02:07;100818.69;;;12.59;66.07
63819;BME280;49970;54.976;73.248;2023-04-22T14:04:38;100819.66;;;12.58;66.11
63819;BME280;49970;54.976;73.248;2023-04-22T14:07:05;100827.72;;;12.57;66.46
63819;BME280;49970;54.976;73.248;2023-04-22T14:09:31;100824.44;;;12.53;66.90
63819;BME280;49970;54.976;73.248;2023-04-22T14:12:00;100822.09;;;12.49;67.84
63819;BME280;49970;54.976;73.248;2023-04-22T14:14:26;100830.94;;;12.49;66.08
63819;BME280;49970;54.976;73.248;2023-04-22T14:16:57;100834.75;;;12.45;65.17
63819;BME280;49970;54.976;73.248;2023-04-22T14:19:28;100827.41;;;12.49;64.73
63819;BME280;49970;54.976;73.248;2023-04-22T14:22:00;100840.69;;;12.49;64.80
63819;BME280;49970;54.976;73.248;2023-04-22T14:24:26;100845.50;;;12.43;64.36